Terminal Aerodrome Forecast
Issued by NWS New Orleans/Baton Rouge, LA

Home | Current Version | Previous Version | Text Only | Print | Product List | Glossary On
Versions: 1 2 3 4 5 6 7 8 9 10 11 12 13 14 15 16 17 18 19 20 21 22 23 24 25 26
855
FTUS44 KLIX 211749
TAFNEW
TAF
KNEW 211749Z 2118/2218 10004KT P6SM BKN060 OVC100
     FM220500 02006KT P6SM SCT020 BKN080
     FM220800 02010KT P6SM SCT020 BKN110
     FM221500 03014KT P6SM FEW035 SCT250=

USA.gov is the U.S. government's official web portal to all federal, state and local government web resources and services.